sensor_id;sensor_type;location;lat;lon;timestamp;P1;durP1;ratioP1;P2;durP2;ratioP2
58669;SDS011;44439;47.924;10.198;2022-12-18T00:02:07;27.92;;;15.82;;
58669;SDS011;44439;47.924;10.198;2022-12-18T00:04:53;28.60;;;15.57;;
58669;SDS011;44439;47.924;10.198;2022-12-18T00:07:38;28.23;;;15.77;;
58669;SDS011;44439;47.924;10.198;2022-12-18T00:10:24;25.73;;;16.17;;
58669;SDS011;44439;47.924;10.198;2022-12-18T00:13:09;29.33;;;17.23;;
58669;SDS011;44439;47.924;10.198;2022-12-18T00:15:55;23.83;;;15.63;;
58669;SDS011;44439;47.924;10.198;2022-12-18T00:18:41;27.23;;;16.77;;
58669;SDS011;44439;47.924;10.198;2022-12-18T00:21:27;29.73;;;17.02;;
58669;SDS011;44439;47.924;10.198;2022-12-18T00:24:13;31.33;;;17.42;;
58669;SDS011;44439;47.924;10.198;2022-12-18T00:26:59;28.58;;;16.58;;
58669;SDS011;44439;47.924;10.198;2022-12-18T00:29:44;29.20;;;16.30;;
58669;SDS011;44439;47.924;10.198;2022-12-18T00:32:30;27.50;;;16.17;;
58669;SDS011;44439;47.924;10.198;2022-12-18T00:35:15;28.85;;;17.27;;
58669;SDS011;44439;47.924;10.198;2022-12-18T00:38:01;26.83;;;15.50;;
58669;SDS011;44439;47.924;10.198;2022-12-18T00:40:46;28.75;;;16.35;;
58669;SDS011;44439;47.924;10.198;2022-12-18T00:43:32;25.92;;;15.20;;
58669;SDS011;44439;47.924;10.198;2022-12-18T00:46:18;23.58;;;14.85;;
58669;SDS011;44439;47.924;10.198;2022-12-18T00:49:03;27.48;;;16.55;;
58669;SDS011;44439;47.924;10.198;2022-12-18T00:51:49;27.20;;;15.93;;
58669;SDS011;44439;47.924;10.198;2022-12-18T00:54:35;25.65;;;14.90;;
58669;SDS011;44439;47.924;10.198;2022-12-18T00:57:20;22.67;;;14.07;;
58669;SDS011;44439;47.924;10.198;2022-12-18T01:00:06;25.38;;;14.20;;
58669;SDS011;44439;47.924;10.198;2022-12-18T01:02:52;26.73;;;14.60;;
58669;SDS011;44439;47.924;10.198;2022-12-18T01:05:41;23.15;;;14.32;;
58669;SDS011;44439;47.924;10.198;2022-12-18T01:08:27;24.20;;;13.52;;
58669;SDS011;44439;47.924;10.198;2022-12-18T01:11:13;23.42;;;13.55;;
58669;SDS011;44439;47.924;10.198;2022-12-18T01:13:59;26.33;;;15.90;;
58669;SDS011;44439;47.924;10.198;2022-12-18T01:16:45;26.33;;;15.05;;
58669;SDS011;44439;47.924;10.198;2022-12-18T01:19:30;22.33;;;13.27;;
58669;SDS011;44439;47.924;10.198;2022-12-18T01:22:16;21.95;;;13.38;;
58669;SDS011;44439;47.924;10.198;2022-12-18T01:25:02;24.40;;;13.63;;
58669;SDS011;44439;47.924;10.198;2022-12-18T01:27:48;18.90;;;12.45;;
58669;SDS011;44439;47.924;10.198;2022-12-18T01:30:33;22.10;;;12.90;;
58669;SDS011;44439;47.924;10.198;2022-12-18T01:33:19;22.98;;;13.55;;
58669;SDS011;44439;47.924;10.198;2022-12-18T01:36:05;23.77;;;13.88;;
58669;SDS011;44439;47.924;10.198;2022-12-18T01:38:50;23.50;;;13.65;;
58669;SDS011;44439;47.924;10.198;2022-12-18T01:41:36;23.83;;;14.18;;
58669;SDS011;44439;47.924;10.198;2022-12-18T01:45:20;21.88;;;13.75;;
58669;SDS011;44439;47.924;10.198;2022-12-18T01:48:07;24.08;;;13.50;;
58669;SDS011;44439;47.924;10.198;2022-12-18T01:50:54;23.02;;;13.20;;
58669;SDS011;44439;47.924;10.198;2022-12-18T01:53:42;23.38;;;13.10;;
58669;SDS011;44439;47.924;10.198;2022-12-18T01:56:28;22.27;;;13.25;;
58669;SDS011;44439;47.924;10.198;2022-12-18T01:59:14;23.65;;;14.43;;
58669;SDS011;44439;47.924;10.198;2022-12-18T02:02:00;22.30;;;13.20;;
58669;SDS011;44439;47.924;10.198;2022-12-18T02:04:45;23.98;;;14.15;;
58669;SDS011;44439;47.924;10.198;2022-12-18T02:07:34;23.42;;;14.35;;
58669;SDS011;44439;47.924;10.198;2022-12-18T02:16:04;23.77;;;13.50;;
58669;SDS011;44439;47.924;10.198;2022-12-18T02:18:55;22.70;;;14.00;;
58669;SDS011;44439;47.924;10.198;2022-12-18T02:24:51;24.38;;;14.18;;
58669;SDS011;44439;47.924;10.198;2022-12-18T02:27:39;26.75;;;14.65;;
58669;SDS011;44439;47.924;10.198;2022-12-18T02:30:26;24.25;;;14.02;;
58669;SDS011;44439;47.924;10.198;2022-12-18T02:33:13;23.27;;;13.40;;
58669;SDS011;44439;47.924;10.198;2022-12-18T02:35:59;21.85;;;13.38;;
58669;SDS011;44439;47.924;10.198;2022-12-18T02:38:46;25.60;;;13.82;;
58669;SDS011;44439;47.924;10.198;2022-12-18T02:41:31;20.48;;;12.75;;
58669;SDS011;44439;47.924;10.198;2022-12-18T02:44:17;25.83;;;13.77;;
58669;SDS011;44439;47.924;10.198;2022-12-18T02:47:08;21.90;;;12.82;;
58669;SDS011;44439;47.924;10.198;2022-12-18T02:58:40;24.10;;;13.00;;
58669;SDS011;44439;47.924;10.198;2022-12-18T03:01:30;25.05;;;13.30;;
58669;SDS011;44439;47.924;10.198;2022-12-18T03:04:20;21.98;;;12.32;;
58669;SDS011;44439;47.924;10.198;2022-12-18T03:07:09;22.38;;;13.05;;
58669;SDS011;44439;47.924;10.198;2022-12-18T03:09:56;26.02;;;13.57;;
58669;SDS011;44439;47.924;10.198;2022-12-18T03:12:53;22.02;;;12.68;;
58669;SDS011;44439;47.924;10.198;2022-12-18T03:15:42;24.88;;;14.02;;
58669;SDS011;44439;47.924;10.198;2022-12-18T03:18:36;23.33;;;13.07;;
58669;SDS011;44439;47.924;10.198;2022-12-18T03:21:25;25.38;;;13.50;;
58669;SDS011;44439;47.924;10.198;2022-12-18T03:24:11;25.45;;;13.20;;
58669;SDS011;44439;47.924;10.198;2022-12-18T03:26:58;21.75;;;13.30;;
58669;SDS011;44439;47.924;10.198;2022-12-18T03:29:46;23.90;;;13.52;;
58669;SDS011;44439;47.924;10.198;2022-12-18T03:32:36;23.25;;;12.95;;
58669;SDS011;44439;47.924;10.198;2022-12-18T03:35:29;20.52;;;12.70;;
58669;SDS011;44439;47.924;10.198;2022-12-18T03:38:15;23.67;;;13.23;;
58669;SDS011;44439;47.924;10.198;2022-12-18T03:41:11;23.08;;;12.80;;
58669;SDS011;44439;47.924;10.198;2022-12-18T03:49:38;21.00;;;12.40;;
58669;SDS011;44439;47.924;10.198;2022-12-18T03:52:30;21.10;;;13.15;;
58669;SDS011;44439;47.924;10.198;2022-12-18T03:55:18;21.02;;;12.75;;
58669;SDS011;44439;47.924;10.198;2022-12-18T03:58:05;23.83;;;12.27;;
58669;SDS011;44439;47.924;10.198;2022-12-18T04:00:51;22.85;;;12.52;;
58669;SDS011;44439;47.924;10.198;2022-12-18T04:03:38;24.45;;;12.60;;
58669;SDS011;44439;47.924;10.198;2022-12-18T04:06:24;20.40;;;12.48;;
58669;SDS011;44439;47.924;10.198;2022-12-18T04:09:10;23.75;;;12.35;;
58669;SDS011;44439;47.924;10.198;2022-12-18T04:11:56;21.10;;;12.52;;
58669;SDS011;44439;47.924;10.198;2022-12-18T04:14:41;21.15;;;12.70;;
58669;SDS011;44439;47.924;10.198;2022-12-18T04:17:27;20.13;;;12.15;;
58669;SDS011;44439;47.924;10.198;2022-12-18T04:20:12;23.02;;;13.10;;
58669;SDS011;44439;47.924;10.198;2022-12-18T04:22:58;23.23;;;12.93;;
58669;SDS011;44439;47.924;10.198;2022-12-18T04:25:44;20.55;;;12.00;;
58669;SDS011;44439;47.924;10.198;2022-12-18T04:28:31;23.33;;;12.57;;
58669;SDS011;44439;47.924;10.198;2022-12-18T04:31:17;20.50;;;12.35;;
58669;SDS011;44439;47.924;10.198;2022-12-18T04:34:02;18.98;;;11.48;;
58669;SDS011;44439;47.924;10.198;2022-12-18T04:36:48;20.63;;;11.80;;
58669;SDS011;44439;47.924;10.198;2022-12-18T04:39:33;20.80;;;12.45;;
58669;SDS011;44439;47.924;10.198;2022-12-18T04:42:19;21.08;;;12.35;;
58669;SDS011;44439;47.924;10.198;2022-12-18T04:45:05;21.35;;;12.73;;
58669;SDS011;44439;47.924;10.198;2022-12-18T04:47:50;22.52;;;13.10;;
58669;SDS011;44439;47.924;10.198;2022-12-18T04:50:36;23.13;;;12.95;;
58669;SDS011;44439;47.924;10.198;2022-12-18T04:53:21;21.13;;;11.90;;
58669;SDS011;44439;47.924;10.198;2022-12-18T04:56:08;21.90;;;12.63;;
58669;SDS011;44439;47.924;10.198;2022-12-18T04:58:54;27.38;;;13.23;;
58669;SDS011;44439;47.924;10.198;2022-12-18T05:01:40;25.30;;;13.20;;
58669;SDS011;44439;47.924;10.198;2022-12-18T05:04:25;24.02;;;13.02;;
58669;SDS011;44439;47.924;10.198;2022-12-18T05:07:11;22.83;;;13.25;;
58669;SDS011;44439;47.924;10.198;2022-12-18T05:09:56;26.17;;;13.15;;
58669;SDS011;44439;47.924;10.198;2022-12-18T05:12:42;23.58;;;13.45;;
58669;SDS011;44439;47.924;10.198;2022-12-18T05:15:51;23.98;;;12.70;;
58669;SDS011;44439;47.924;10.198;2022-12-18T05:18:38;25.42;;;14.25;;
58669;SDS011;44439;47.924;10.198;2022-12-18T05:21:23;25.60;;;14.43;;
58669;SDS011;44439;47.924;10.198;2022-12-18T05:24:09;24.20;;;13.55;;
58669;SDS011;44439;47.924;10.198;2022-12-18T05:26:54;28.10;;;14.93;;
58669;SDS011;44439;47.924;10.198;2022-12-18T05:29:40;24.52;;;14.07;;
58669;SDS011;44439;47.924;10.198;2022-12-18T05:32:25;22.42;;;13.75;;
58669;SDS011;44439;47.924;10.198;2022-12-18T05:35:11;23.17;;;13.88;;
58669;SDS011;44439;47.924;10.198;2022-12-18T05:37:57;23.42;;;13.50;;
58669;SDS011;44439;47.924;10.198;2022-12-18T05:40:42;24.55;;;14.32;;
58669;SDS011;44439;47.924;10.198;2022-12-18T05:43:29;23.05;;;14.13;;
58669;SDS011;44439;47.924;10.198;2022-12-18T05:46:15;24.67;;;14.10;;
58669;SDS011;44439;47.924;10.198;2022-12-18T05:49:01;24.63;;;14.40;;
58669;SDS011;44439;47.924;10.198;2022-12-18T05:51:47;26.73;;;13.63;;
58669;SDS011;44439;47.924;10.198;2022-12-18T05:54:32;25.83;;;14.15;;
58669;SDS011;44439;47.924;10.198;2022-12-18T05:57:18;24.88;;;14.60;;
58669;SDS011;44439;47.924;10.198;2022-12-18T06:00:04;23.65;;;14.13;;
58669;SDS011;44439;47.924;10.198;2022-12-18T06:02:49;22.88;;;13.20;;
58669;SDS011;44439;47.924;10.198;2022-12-18T06:05:39;21.42;;;12.18;;
58669;SDS011;44439;47.924;10.198;2022-12-18T06:08:25;21.75;;;13.27;;
58669;SDS011;44439;47.924;10.198;2022-12-18T06:11:11;24.27;;;12.65;;
58669;SDS011;44439;47.924;10.198;2022-12-18T06:13:56;20.38;;;12.15;;
58669;SDS011;44439;47.924;10.198;2022-12-18T06:16:42;23.13;;;12.77;;
58669;SDS011;44439;47.924;10.198;2022-12-18T06:19:28;21.58;;;13.02;;
58669;SDS011;44439;47.924;10.198;2022-12-18T06:22:13;19.73;;;12.98;;
58669;SDS011;44439;47.924;10.198;2022-12-18T06:24:59;23.40;;;13.60;;
58669;SDS011;44439;47.924;10.198;2022-12-18T06:27:46;22.83;;;12.80;;
58669;SDS011;44439;47.924;10.198;2022-12-18T06:30:32;23.50;;;13.85;;
58669;SDS011;44439;47.924;10.198;2022-12-18T06:33:17;25.52;;;14.68;;
58669;SDS011;44439;47.924;10.198;2022-12-18T06:36:07;25.60;;;14.88;;
58669;SDS011;44439;47.924;10.198;2022-12-18T06:38:53;27.23;;;14.88;;
58669;SDS011;44439;47.924;10.198;2022-12-18T06:41:39;34.97;;;20.65;;
58669;SDS011;44439;47.924;10.198;2022-12-18T06:44:24;25.17;;;14.55;;
58669;SDS011;44439;47.924;10.198;2022-12-18T06:47:10;23.55;;;14.82;;
58669;SDS011;44439;47.924;10.198;2022-12-18T06:49:56;27.45;;;14.10;;
58669;SDS011;44439;47.924;10.198;2022-12-18T06:52:41;36.88;;;19.95;;
58669;SDS011;44439;47.924;10.198;2022-12-18T06:55:29;25.55;;;16.50;;
58669;SDS011;44439;47.924;10.198;2022-12-18T06:58:14;27.65;;;16.58;;
58669;SDS011;44439;47.924;10.198;2022-12-18T07:01:01;22.80;;;14.45;;
58669;SDS011;44439;47.924;10.198;2022-12-18T07:03:46;22.13;;;14.75;;
58669;SDS011;44439;47.924;10.198;2022-12-18T07:06:32;32.70;;;20.02;;
58669;SDS011;44439;47.924;10.198;2022-12-18T07:09:18;26.92;;;18.67;;
58669;SDS011;44439;47.924;10.198;2022-12-18T07:12:03;21.25;;;13.38;;
58669;SDS011;44439;47.924;10.198;2022-12-18T07:14:50;50.97;;;25.70;;
58669;SDS011;44439;47.924;10.198;2022-12-18T07:17:38;25.23;;;15.93;;
58669;SDS011;44439;47.924;10.198;2022-12-18T07:20:24;27.77;;;17.02;;
58669;SDS011;44439;47.924;10.198;2022-12-18T07:23:09;30.13;;;17.50;;
58669;SDS011;44439;47.924;10.198;2022-12-18T07:25:55;29.05;;;16.15;;
58669;SDS011;44439;47.924;10.198;2022-12-18T07:28:41;30.25;;;17.83;;
58669;SDS011;44439;47.924;10.198;2022-12-18T07:31:26;39.85;;;21.10;;
58669;SDS011;44439;47.924;10.198;2022-12-18T07:34:12;55.72;;;30.60;;
58669;SDS011;44439;47.924;10.198;2022-12-18T07:36:58;56.40;;;30.70;;
58669;SDS011;44439;47.924;10.198;2022-12-18T07:39:43;49.58;;;26.58;;
58669;SDS011;44439;47.924;10.198;2022-12-18T07:42:29;50.53;;;26.83;;
58669;SDS011;44439;47.924;10.198;2022-12-18T07:45:18;43.22;;;23.13;;
58669;SDS011;44439;47.924;10.198;2022-12-18T07:48:04;42.03;;;23.35;;
58669;SDS011;44439;47.924;10.198;2022-12-18T07:50:49;51.40;;;29.55;;
58669;SDS011;44439;47.924;10.198;2022-12-18T07:53:35;44.33;;;27.30;;
58669;SDS011;44439;47.924;10.198;2022-12-18T07:56:21;61.97;;;39.28;;
58669;SDS011;44439;47.924;10.198;2022-12-18T07:59:06;63.67;;;39.17;;
58669;SDS011;44439;47.924;10.198;2022-12-18T08:01:52;52.50;;;31.88;;
58669;SDS011;44439;47.924;10.198;2022-12-18T08:04:37;53.63;;;31.00;;
58669;SDS011;44439;47.924;10.198;2022-12-18T08:07:23;54.58;;;32.75;;
58669;SDS011;44439;47.924;10.198;2022-12-18T08:10:09;51.65;;;29.17;;
58669;SDS011;44439;47.924;10.198;2022-12-18T08:12:54;49.47;;;28.02;;
58669;SDS011;44439;47.924;10.198;2022-12-18T08:15:40;38.78;;;23.65;;
58669;SDS011;44439;47.924;10.198;2022-12-18T08:18:25;33.15;;;19.73;;
58669;SDS011;44439;47.924;10.198;2022-12-18T08:21:17;30.65;;;18.15;;
58669;SDS011;44439;47.924;10.198;2022-12-18T08:24:03;26.20;;;16.50;;
58669;SDS011;44439;47.924;10.198;2022-12-18T08:26:49;30.98;;;18.20;;
58669;SDS011;44439;47.924;10.198;2022-12-18T08:29:35;47.92;;;26.60;;
58669;SDS011;44439;47.924;10.198;2022-12-18T08:32:21;64.68;;;35.45;;
58669;SDS011;44439;47.924;10.198;2022-12-18T08:35:07;62.15;;;35.10;;
58669;SDS011;44439;47.924;10.198;2022-12-18T08:37:53;59.17;;;35.80;;
58669;SDS011;44439;47.924;10.198;2022-12-18T08:40:39;54.58;;;34.40;;
58669;SDS011;44439;47.924;10.198;2022-12-18T08:43:24;50.28;;;31.13;;
58669;SDS011;44439;47.924;10.198;2022-12-18T08:46:33;45.90;;;28.42;;
58669;SDS011;44439;47.924;10.198;2022-12-18T08:49:19;38.25;;;22.55;;
58669;SDS011;44439;47.924;10.198;2022-12-18T08:52:04;35.65;;;22.38;;
58669;SDS011;44439;47.924;10.198;2022-12-18T08:54:50;38.47;;;24.25;;
58669;SDS011;44439;47.924;10.198;2022-12-18T08:57:36;56.15;;;32.40;;
58669;SDS011;44439;47.924;10.198;2022-12-18T09:00:21;46.17;;;27.83;;
58669;SDS011;44439;47.924;10.198;2022-12-18T09:03:11;33.42;;;21.17;;
58669;SDS011;44439;47.924;10.198;2022-12-18T09:05:57;38.80;;;23.20;;
58669;SDS011;44439;47.924;10.198;2022-12-18T09:08:43;35.10;;;20.15;;
58669;SDS011;44439;47.924;10.198;2022-12-18T09:11:28;37.75;;;22.35;;
58669;SDS011;44439;47.924;10.198;2022-12-18T09:14:14;32.05;;;18.15;;
58669;SDS011;44439;47.924;10.198;2022-12-18T09:17:00;31.05;;;19.02;;
58669;SDS011;44439;47.924;10.198;2022-12-18T09:19:45;48.60;;;26.48;;
58669;SDS011;44439;47.924;10.198;2022-12-18T09:22:31;35.80;;;21.13;;
58669;SDS011;44439;47.924;10.198;2022-12-18T09:25:17;30.95;;;18.33;;
58669;SDS011;44439;47.924;10.198;2022-12-18T09:28:03;35.78;;;21.60;;
58669;SDS011;44439;47.924;10.198;2022-12-18T09:30:49;31.33;;;19.63;;
58669;SDS011;44439;47.924;10.198;2022-12-18T09:33:35;36.00;;;21.55;;
58669;SDS011;44439;47.924;10.198;2022-12-18T09:36:22;26.05;;;17.38;;
58669;SDS011;44439;47.924;10.198;2022-12-18T09:39:07;33.92;;;18.02;;
58669;SDS011;44439;47.924;10.198;2022-12-18T09:41:54;27.33;;;17.55;;
58669;SDS011;44439;47.924;10.198;2022-12-18T09:44:41;25.80;;;15.13;;
58669;SDS011;44439;47.924;10.198;2022-12-18T09:47:40;24.23;;;14.65;;
58669;SDS011;44439;47.924;10.198;2022-12-18T09:50:32;23.40;;;13.20;;
58669;SDS011;44439;47.924;10.198;2022-12-18T09:53:20;25.20;;;15.43;;
58669;SDS011;44439;47.924;10.198;2022-12-18T09:56:10;26.60;;;16.42;;
58669;SDS011;44439;47.924;10.198;2022-12-18T10:01:43;22.27;;;13.45;;
58669;SDS011;44439;47.924;10.198;2022-12-18T10:04:29;25.95;;;14.98;;
58669;SDS011;44439;47.924;10.198;2022-12-18T10:07:19;21.00;;;13.65;;
58669;SDS011;44439;47.924;10.198;2022-12-18T10:19:24;25.83;;;16.27;;
58669;SDS011;44439;47.924;10.198;2022-12-18T10:28:13;29.65;;;15.93;;
58669;SDS011;44439;47.924;10.198;2022-12-18T10:30:59;29.15;;;16.05;;
58669;SDS011;44439;47.924;10.198;2022-12-18T10:33:45;28.15;;;16.27;;
58669;SDS011;44439;47.924;10.198;2022-12-18T10:36:31;28.38;;;16.60;;
58669;SDS011;44439;47.924;10.198;2022-12-18T10:39:18;25.55;;;14.70;;
58669;SDS011;44439;47.924;10.198;2022-12-18T10:42:16;26.02;;;14.68;;
58669;SDS011;44439;47.924;10.198;2022-12-18T10:45:10;22.35;;;14.05;;
58669;SDS011;44439;47.924;10.198;2022-12-18T10:47:57;34.22;;;20.48;;
58669;SDS011;44439;47.924;10.198;2022-12-18T10:50:45;33.40;;;19.65;;
58669;SDS011;44439;47.924;10.198;2022-12-18T10:53:32;43.38;;;21.08;;
58669;SDS011;44439;47.924;10.198;2022-12-18T10:56:20;32.75;;;17.15;;
58669;SDS011;44439;47.924;10.198;2022-12-18T10:59:07;26.40;;;14.63;;
58669;SDS011;44439;47.924;10.198;2022-12-18T11:01:56;28.77;;;14.45;;
58669;SDS011;44439;47.924;10.198;2022-12-18T11:04:49;24.65;;;12.30;;
58669;SDS011;44439;47.924;10.198;2022-12-18T11:08:11;29.67;;;15.57;;
58669;SDS011;44439;47.924;10.198;2022-12-18T11:10:47;24.55;;;12.52;;
58669;SDS011;44439;47.924;10.198;2022-12-18T11:13:32;21.42;;;12.20;;
58669;SDS011;44439;47.924;10.198;2022-12-18T11:16:19;23.33;;;13.63;;
58669;SDS011;44439;47.924;10.198;2022-12-18T11:27:58;26.00;;;13.27;;
58669;SDS011;44439;47.924;10.198;2022-12-18T11:30:44;23.35;;;13.38;;
58669;SDS011;44439;47.924;10.198;2022-12-18T11:33:29;22.75;;;12.15;;
58669;SDS011;44439;47.924;10.198;2022-12-18T11:36:15;24.83;;;13.27;;
58669;SDS011;44439;47.924;10.198;2022-12-18T11:39:07;23.90;;;13.20;;
58669;SDS011;44439;47.924;10.198;2022-12-18T11:42:12;34.70;;;18.88;;
58669;SDS011;44439;47.924;10.198;2022-12-18T11:45:03;39.08;;;19.90;;
58669;SDS011;44439;47.924;10.198;2022-12-18T11:47:57;47.45;;;24.75;;
58669;SDS011;44439;47.924;10.198;2022-12-18T11:50:47;32.10;;;17.35;;
58669;SDS011;44439;47.924;10.198;2022-12-18T11:53:34;33.80;;;16.90;;
58669;SDS011;44439;47.924;10.198;2022-12-18T11:56:30;25.17;;;13.88;;
58669;SDS011;44439;47.924;10.198;2022-12-18T11:59:36;26.45;;;14.23;;
58669;SDS011;44439;47.924;10.198;2022-12-18T12:05:31;36.92;;;19.33;;
58669;SDS011;44439;47.924;10.198;2022-12-18T12:08:26;28.65;;;14.75;;
58669;SDS011;44439;47.924;10.198;2022-12-18T12:14:29;25.20;;;14.20;;
58669;SDS011;44439;47.924;10.198;2022-12-18T12:23:13;24.45;;;13.65;;
58669;SDS011;44439;47.924;10.198;2022-12-18T12:26:03;25.75;;;14.05;;
58669;SDS011;44439;47.924;10.198;2022-12-18T12:29:25;26.08;;;14.23;;
58669;SDS011;44439;47.924;10.198;2022-12-18T12:40:50;27.92;;;14.45;;
58669;SDS011;44439;47.924;10.198;2022-12-18T12:43:41;28.63;;;15.50;;
58669;SDS011;44439;47.924;10.198;2022-12-18T12:46:27;28.40;;;14.95;;
58669;SDS011;44439;47.924;10.198;2022-12-18T12:49:17;28.23;;;14.45;;
58669;SDS011;44439;47.924;10.198;2022-12-18T12:55:12;29.00;;;14.48;;
58669;SDS011;44439;47.924;10.198;2022-12-18T13:00:49;27.05;;;14.35;;
58669;SDS011;44439;47.924;10.198;2022-12-18T13:09:21;25.58;;;14.40;;
58669;SDS011;44439;47.924;10.198;2022-12-18T13:12:11;26.92;;;14.38;;
58669;SDS011;44439;47.924;10.198;2022-12-18T13:15:22;24.85;;;13.43;;
58669;SDS011;44439;47.924;10.198;2022-12-18T13:23:39;26.80;;;13.27;;
58669;SDS011;44439;47.924;10.198;2022-12-18T13:29:11;35.50;;;19.40;;
58669;SDS011;44439;47.924;10.198;2022-12-18T13:32:00;63.03;;;29.33;;
58669;SDS011;44439;47.924;10.198;2022-12-18T13:34:46;43.15;;;21.73;;
58669;SDS011;44439;47.924;10.198;2022-12-18T13:37:39;31.35;;;17.23;;
58669;SDS011;44439;47.924;10.198;2022-12-18T13:43:24;36.08;;;18.52;;
58669;SDS011;44439;47.924;10.198;2022-12-18T13:46:21;33.10;;;16.30;;
58669;SDS011;44439;47.924;10.198;2022-12-18T13:49:21;45.33;;;22.35;;
58669;SDS011;44439;47.924;10.198;2022-12-18T13:52:18;32.47;;;16.53;;
58669;SDS011;44439;47.924;10.198;2022-12-18T13:55:05;39.13;;;20.77;;
58669;SDS011;44439;47.924;10.198;2022-12-18T13:58:02;55.05;;;24.30;;
58669;SDS011;44439;47.924;10.198;2022-12-18T14:00:48;39.40;;;20.00;;
58669;SDS011;44439;47.924;10.198;2022-12-18T14:03:33;75.65;;;25.80;;
58669;SDS011;44439;47.924;10.198;2022-12-18T14:06:19;43.33;;;18.90;;
58669;SDS011;44439;47.924;10.198;2022-12-18T14:09:05;38.67;;;18.27;;
58669;SDS011;44439;47.924;10.198;2022-12-18T14:11:53;53.78;;;18.02;;
58669;SDS011;44439;47.924;10.198;2022-12-18T14:14:59;62.55;;;16.20;;
58669;SDS011;44439;47.924;10.198;2022-12-18T14:17:45;68.13;;;16.05;;
58669;SDS011;44439;47.924;10.198;2022-12-18T14:20:32;91.38;;;22.65;;
58669;SDS011;44439;47.924;10.198;2022-12-18T14:23:34;83.93;;;24.63;;
58669;SDS011;44439;47.924;10.198;2022-12-18T14:26:21;33.67;;;16.08;;
58669;SDS011;44439;47.924;10.198;2022-12-18T14:32:11;54.67;;;18.67;;
58669;SDS011;44439;47.924;10.198;2022-12-18T14:34:59;62.05;;;19.00;;
58669;SDS011;44439;47.924;10.198;2022-12-18T14:38:09;87.43;;;18.48;;
58669;SDS011;44439;47.924;10.198;2022-12-18T14:40:58;46.50;;;17.33;;
58669;SDS011;44439;47.924;10.198;2022-12-18T14:43:45;111.82;;;20.08;;
58669;SDS011;44439;47.924;10.198;2022-12-18T14:52:06;112.55;;;28.95;;
58669;SDS011;44439;47.924;10.198;2022-12-18T14:54:51;56.60;;;21.95;;
58669;SDS011;44439;47.924;10.198;2022-12-18T14:57:37;48.47;;;24.42;;
58669;SDS011;44439;47.924;10.198;2022-12-18T15:00:25;42.40;;;20.08;;
58669;SDS011;44439;47.924;10.198;2022-12-18T15:03:12;107.18;;;21.10;;
58669;SDS011;44439;47.924;10.198;2022-12-18T15:06:14;54.47;;;25.67;;
58669;SDS011;44439;47.924;10.198;2022-12-18T15:09:00;46.80;;;23.75;;
58669;SDS011;44439;47.924;10.198;2022-12-18T15:11:47;77.28;;;19.33;;
58669;SDS011;44439;47.924;10.198;2022-12-18T15:14:34;45.95;;;20.33;;
58669;SDS011;44439;47.924;10.198;2022-12-18T15:17:23;59.30;;;23.58;;
58669;SDS011;44439;47.924;10.198;2022-12-18T15:20:09;50.50;;;21.88;;
58669;SDS011;44439;47.924;10.198;2022-12-18T15:22:55;49.10;;;21.92;;
58669;SDS011;44439;47.924;10.198;2022-12-18T15:25:40;45.20;;;20.48;;
58669;SDS011;44439;47.924;10.198;2022-12-18T15:28:28;47.33;;;20.58;;
58669;SDS011;44439;47.924;10.198;2022-12-18T15:31:23;49.22;;;20.85;;
58669;SDS011;44439;47.924;10.198;2022-12-18T15:34:11;38.80;;;19.13;;
58669;SDS011;44439;47.924;10.198;2022-12-18T15:36:57;62.72;;;23.38;;
58669;SDS011;44439;47.924;10.198;2022-12-18T15:39:43;60.75;;;21.70;;
58669;SDS011;44439;47.924;10.198;2022-12-18T15:42:28;64.40;;;24.67;;
58669;SDS011;44439;47.924;10.198;2022-12-18T15:45:33;47.60;;;23.17;;
58669;SDS011;44439;47.924;10.198;2022-12-18T15:48:22;42.58;;;19.75;;
58669;SDS011;44439;47.924;10.198;2022-12-18T15:51:11;52.95;;;24.83;;
58669;SDS011;44439;47.924;10.198;2022-12-18T15:53:59;214.07;;;29.33;;
58669;SDS011;44439;47.924;10.198;2022-12-18T15:57:23;62.92;;;28.05;;
58669;SDS011;44439;47.924;10.198;2022-12-18T16:00:11;52.72;;;23.98;;
58669;SDS011;44439;47.924;10.198;2022-12-18T16:02:57;55.13;;;21.15;;
58669;SDS011;44439;47.924;10.198;2022-12-18T16:05:42;55.35;;;22.60;;
58669;SDS011;44439;47.924;10.198;2022-12-18T16:08:28;53.38;;;23.85;;
58669;SDS011;44439;47.924;10.198;2022-12-18T16:11:25;204.35;;;21.92;;
58669;SDS011;44439;47.924;10.198;2022-12-18T16:14:30;137.00;;;23.08;;
58669;SDS011;44439;47.924;10.198;2022-12-18T16:17:16;62.47;;;26.00;;
58669;SDS011;44439;47.924;10.198;2022-12-18T16:20:02;46.75;;;23.05;;
58669;SDS011;44439;47.924;10.198;2022-12-18T16:22:48;71.28;;;27.35;;
58669;SDS011;44439;47.924;10.198;2022-12-18T16:25:34;50.58;;;23.75;;
58669;SDS011;44439;47.924;10.198;2022-12-18T16:28:20;51.08;;;23.75;;
58669;SDS011;44439;47.924;10.198;2022-12-18T16:31:06;56.30;;;25.77;;
58669;SDS011;44439;47.924;10.198;2022-12-18T16:34:12;49.15;;;23.58;;
58669;SDS011;44439;47.924;10.198;2022-12-18T16:36:58;62.65;;;25.52;;
58669;SDS011;44439;47.924;10.198;2022-12-18T16:39:45;62.83;;;25.77;;
58669;SDS011;44439;47.924;10.198;2022-12-18T16:42:30;88.13;;;28.77;;
58669;SDS011;44439;47.924;10.198;2022-12-18T16:45:17;66.93;;;29.60;;
58669;SDS011;44439;47.924;10.198;2022-12-18T16:48:03;65.53;;;30.17;;
58669;SDS011;44439;47.924;10.198;2022-12-18T16:50:48;82.25;;;34.85;;
58669;SDS011;44439;47.924;10.198;2022-12-18T16:53:34;84.65;;;34.40;;
58669;SDS011;44439;47.924;10.198;2022-12-18T16:56:20;89.43;;;40.05;;
58669;SDS011;44439;47.924;10.198;2022-12-18T16:59:05;91.05;;;38.50;;
58669;SDS011;44439;47.924;10.198;2022-12-18T17:01:51;95.22;;;36.50;;
58669;SDS011;44439;47.924;10.198;2022-12-18T17:04:36;96.32;;;40.15;;
58669;SDS011;44439;47.924;10.198;2022-12-18T17:07:22;97.57;;;40.63;;
58669;SDS011;44439;47.924;10.198;2022-12-18T17:10:08;116.07;;;46.35;;
58669;SDS011;44439;47.924;10.198;2022-12-18T17:12:54;93.38;;;38.33;;
58669;SDS011;44439;47.924;10.198;2022-12-18T17:15:40;85.53;;;34.95;;
58669;SDS011;44439;47.924;10.198;2022-12-18T17:18:25;81.70;;;35.90;;
58669;SDS011;44439;47.924;10.198;2022-12-18T17:21:12;76.32;;;40.60;;
58669;SDS011;44439;47.924;10.198;2022-12-18T17:23:59;59.20;;;31.60;;
58669;SDS011;44439;47.924;10.198;2022-12-18T17:26:45;52.08;;;30.42;;
58669;SDS011;44439;47.924;10.198;2022-12-18T17:29:32;50.22;;;28.75;;
58669;SDS011;44439;47.924;10.198;2022-12-18T17:32:18;46.45;;;26.88;;
58669;SDS011;44439;47.924;10.198;2022-12-18T17:35:03;52.92;;;30.05;;
58669;SDS011;44439;47.924;10.198;2022-12-18T17:37:49;64.68;;;34.15;;
58669;SDS011;44439;47.924;10.198;2022-12-18T17:40:34;53.53;;;29.80;;
58669;SDS011;44439;47.924;10.198;2022-12-18T17:43:20;60.22;;;33.92;;
58669;SDS011;44439;47.924;10.198;2022-12-18T17:46:05;53.28;;;30.77;;
58669;SDS011;44439;47.924;10.198;2022-12-18T17:48:51;59.00;;;32.92;;
58669;SDS011;44439;47.924;10.198;2022-12-18T17:51:39;62.20;;;34.45;;